Archer, Illinois
Current Conditions -  °F | °C
As of 10:52 AM on Wednesday 26 Nov 2014 (Local Time) from KSPI Reporting Station
Overcast Overcast  
Wind Chill: 23°   Ceiling: 7000
Heat Index: 32°   Visibility: 10mi
Dew Point: 28°   Wind: 12mph
Humidity: 85%   Direction: 120°ESE
Pressure: 30.06"   Gusts: NA
Location:  39.854°N, 89.6295°W
Report Text: KSPI 261652Z 12010KT 10SM BKN070 OVC085 00/M02 A3006 RMK AO2 SLP185 T00001022
Loading
Personal Weather Stations






























Interactive Weather Map New forecast layout! Learn more

10-Day Weather Forecast

Advertisements
Track Severe Weather on mobile